• Join FlightAware (Why Join?)
  • Login
  • US Flag 
05:03PM EDT


 

Airport Tracker/Info


-or-


 

Live Flight TrackerFlight Track Log ✈ UAL4846 ✈ 14-Apr-2013 ✈ KEWR - KPVD

Flight Track Log - Related Links

Times and Time Zones

All times are in EDT time to prevent confusion due to time zone crossing. See the UAL4846 flight status page for this flight to view local times or setup timezone preferences in your user account.

Time Position Orientation Groundspeed Altitude Reporting Facility
EDT Latitude Longitude Course Direction KTS MPH feet Rate Location/Type
01:53PM 40.8734 -73.7063 63° Northeast  Level Estimated
01:54PM 40.9034 -73.6290 63° Northeast  Level Estimated
01:55PM 40.9333 -73.5516 63° Northeast  Level Estimated
01:56PM 40.9632 -73.4742 63° Northeast  Level Estimated
01:57PM 40.9930 -73.3966 63° Northeast  Level Estimated
01:58PM 41.0228 -73.3191 63° Northeast  Level Estimated
01:59PM 41.0525 -73.2414 63° Northeast  Level Estimated
02:00PM 41.0821 -73.1637 63° Northeast  Level Estimated
02:01PM 41.1117 -73.0859 63° Northeast  Level Estimated
02:02PM 41.1413 -73.0080 63° Northeast  Level Estimated
02:03PM 41.1708 -72.9301 63° Northeast  Level Estimated
02:04PM 41.2002 -72.8520 63° Northeast  Level Estimated
02:05PM 41.2296 -72.7740 63° Northeast  Level Estimated
02:06PM 41.2590 -72.6958 63° Northeast  Level Estimated
02:07PM 41.2883 -72.6176 63° Northeast  Level Estimated
02:08PM 41.3175 -72.5393 64° Northeast  Level Estimated
02:09PM 41.3467 -72.4609 64° Northeast  Level Estimated
02:10PM 41.3758 -72.3825 64° Northeast  Level Estimated
02:11PM 41.4049 -72.3040 64° Northeast  Level Estimated
02:12PM 41.4339 -72.2254 64° Northeast  Level Estimated
02:13PM 41.4629 -72.1468 64° Northeast  Level Estimated
02:14PM 41.4918 -72.0681 64° Northeast  Level Estimated
02:15PM 41.5207 -71.9893 64° Northeast  Level Estimated
02:16PM 41.5495 -71.9105 64° Northeast  Level Estimated
02:17PM 41.5783 -71.8315 64° Northeast  Level Estimated
02:18PM 41.6070 -71.7525 64° Northeast  Level Estimated
02:19PM 41.6356 -71.6735 64° Northeast  Level Estimated
02:20PM 41.6642 -71.5944 64° Northeast  Level Estimated
02:21PM 41.6928 -71.5152 64° Northeast  Level Estimated
02:22PM 41.7212 -71.4359 64° Northeast  Level Estimated
02:23PM 41.7240 -71.4282 64° Northeast  Level Estimated
02:24PM 41.7240 -71.4282 226° Southwest  Level Estimated
02:25PM 41.7240 -71.4282 226° Southwest  Level Estimated
02:26PM 41.7240 -71.4282 226° Southwest  Level Estimated
02:27PM 41.7240 -71.4282 226° Southwest  Level Estimated
02:28PM 41.7240 -71.4282 226° Southwest  Level Estimated
02:29PM 41.7240 -71.4282 226° Southwest  Level Estimated
02:30PM 41.7240 -71.4282 226° Southwest  Level Estimated
02:31PM 41.7240 -71.4282 226° Southwest  Level Estimated
02:32PM 41.7240 -71.4282 226° Southwest  Level Estimated
02:33PM 41.7240 -71.4282 226° Southwest  Level Estimated
02:34PM 41.7240 -71.4282 226° Southwest  Level Estimated
02:35PM 41.7240 -71.4282 226° Southwest  Level Estimated
02:36PM 41.7240 -71.4282 226° Southwest  Level Estimated
02:37PM 41.7240 -71.4282 226° Southwest  Level Estimated
02:38PM 41.7240 -71.4282 226° Southwest  Level Estimated